HVN595 VHHH-VVTS
Flight info
| Callsign | HVN595 |
|---|---|
| Flight time | 2h 6m |
| Altitude | 34000 |
| Route | PECAN V12 EPDOS L642 EPKAL/K0861F350 L642 SOSPA/K0857F360 W15 VETOM VETOM5C |
| Aircraft | A321/M-SDE3FGHIRWY/LB1 |
Departure
| Time | 2026-05-03 23:38 |
|---|---|
| Airport | Hong Kong International Airport (VHHH) |
Arrival
| Time | 2026-05-04 01:44 |
|---|---|
| Airport | Tan Son Nhat International Airport (VVTS) |
| Time | Latitude | Longitude | Altitude | Speed | Heading |
|---|---|---|---|---|---|
| 2026-05-03 23:19 | 22.31385 | 113.92788 | 32 ft | 0 kts | 161° |
| 2026-05-03 23:24 | 22.31393 | 113.92785 | 32 ft | 4 kts | 161° |
| 2026-05-03 23:24 | 22.31418 | 113.92776 | 31 ft | 4 kts | 161° |
| 2026-05-03 23:24 | 22.31440 | 113.92768 | 31 ft | 4 kts | 167° |
| 2026-05-03 23:25 | 22.31465 | 113.92768 | 31 ft | 4 kts | 206° |
| 2026-05-03 23:25 | 22.31483 | 113.92786 | 30 ft | 4 kts | 245° |
| 2026-05-03 23:25 | 22.31492 | 113.92812 | 31 ft | 4 kts | 251° |
| 2026-05-03 23:25 | 22.31498 | 113.92830 | 31 ft | 0 kts | 251° |
| 2026-05-03 23:28 | 22.31497 | 113.92828 | 31 ft | 2 kts | 251° |
| 2026-05-03 23:28 | 22.31487 | 113.92789 | 30 ft | 9 kts | 259° |
| 2026-05-03 23:28 | 22.31514 | 113.92705 | 32 ft | 15 kts | 296° |
| 2026-05-03 23:29 | 22.31566 | 113.92591 | 31 ft | 17 kts | 296° |
| 2026-05-03 23:29 | 22.31620 | 113.92472 | 32 ft | 18 kts | 296° |
| 2026-05-03 23:29 | 22.31634 | 113.92346 | 32 ft | 18 kts | 252° |
| 2026-05-03 23:29 | 22.31594 | 113.92217 | 32 ft | 18 kts | 250° |
| 2026-05-03 23:30 | 22.31551 | 113.92086 | 31 ft | 19 kts | 251° |
| 2026-05-03 23:30 | 22.31509 | 113.91952 | 32 ft | 19 kts | 251° |
| 2026-05-03 23:30 | 22.31440 | 113.91891 | 32 ft | 13 kts | 167° |
| 2026-05-03 23:30 | 22.31342 | 113.91927 | 32 ft | 17 kts | 161° |
| 2026-05-03 23:31 | 22.31223 | 113.91971 | 32 ft | 20 kts | 161° |
| 2026-05-03 23:31 | 22.31091 | 113.92021 | 32 ft | 20 kts | 161° |
| 2026-05-03 23:31 | 22.30955 | 113.92072 | 31 ft | 21 kts | 161° |
| 2026-05-03 23:31 | 22.30826 | 113.92120 | 32 ft | 18 kts | 161° |
| 2026-05-03 23:32 | 22.30707 | 113.92163 | 32 ft | 18 kts | 161° |
| 2026-05-03 23:32 | 22.30591 | 113.92190 | 32 ft | 15 kts | 203° |
| 2026-05-03 23:32 | 22.30541 | 113.92087 | 32 ft | 18 kts | 251° |
| 2026-05-03 23:32 | 22.30495 | 113.91943 | 32 ft | 22 kts | 251° |
| 2026-05-03 23:33 | 22.30443 | 113.91784 | 32 ft | 23 kts | 251° |
| 2026-05-03 23:33 | 22.30392 | 113.91623 | 32 ft | 23 kts | 251° |
| 2026-05-03 23:33 | 22.30338 | 113.91460 | 32 ft | 23 kts | 250° |
| 2026-05-03 23:33 | 22.30303 | 113.91351 | 32 ft | 23 kts | 251° |
| 2026-05-03 23:34 | 22.30232 | 113.91130 | 32 ft | 24 kts | 251° |
| 2026-05-03 23:34 | 22.30177 | 113.90961 | 32 ft | 24 kts | 250° |
| 2026-05-03 23:34 | 22.30123 | 113.90791 | 32 ft | 24 kts | 251° |
| 2026-05-03 23:34 | 22.30067 | 113.90619 | 32 ft | 24 kts | 250° |
| 2026-05-03 23:35 | 22.30012 | 113.90446 | 30 ft | 25 kts | 251° |
| 2026-05-03 23:35 | 22.29955 | 113.90271 | 31 ft | 25 kts | 250° |
| 2026-05-03 23:35 | 22.29917 | 113.90153 | 32 ft | 25 kts | 251° |
| 2026-05-03 23:35 | 22.29861 | 113.89978 | 32 ft | 25 kts | 251° |
| 2026-05-03 23:36 | 22.29812 | 113.89822 | 32 ft | 17 kts | 251° |
| 2026-05-03 23:36 | 22.29732 | 113.89770 | 32 ft | 14 kts | 165° |
| 2026-05-03 23:36 | 22.29641 | 113.89804 | 30 ft | 7 kts | 151° |
| 2026-05-03 23:36 | 22.29633 | 113.89845 | 30 ft | 6 kts | 76° |
| 2026-05-03 23:37 | 22.29662 | 113.89933 | 30 ft | 33 kts | 71° |
| 2026-05-03 23:37 | 22.29817 | 113.90413 | 31 ft | 101 kts | 71° |
| 2026-05-03 23:37 | 22.30113 | 113.91329 | 32 ft | 155 kts | 71° |
| 2026-05-03 23:37 | 22.30505 | 113.92555 | 240 ft | 180 kts | 70° |
| 2026-05-03 23:38 | 22.30917 | 113.93824 | 945 ft | 180 kts | 68° |
| 2026-05-03 23:38 | 22.31335 | 113.95109 | 1660 ft | 181 kts | 68° |
| 2026-05-03 23:38 | 22.31757 | 113.96417 | 2076 ft | 192 kts | 68° |
| 2026-05-03 23:38 | 22.32213 | 113.97829 | 2389 ft | 204 kts | 68° |
| 2026-05-03 23:39 | 22.32684 | 113.99295 | 2863 ft | 208 kts | 68° |
| 2026-05-03 23:39 | 22.33163 | 114.00782 | 3334 ft | 211 kts | 68° |
| 2026-05-03 23:39 | 22.33651 | 114.02301 | 3745 ft | 218 kts | 69° |
| 2026-05-03 23:39 | 22.33874 | 114.03986 | 3946 ft | 238 kts | 93° |
| 2026-05-03 23:40 | 22.33463 | 114.05745 | 4402 ft | 246 kts | 115° |
| 2026-05-03 23:40 | 22.32481 | 114.07252 | 4908 ft | 247 kts | 139° |
| 2026-05-03 23:40 | 22.31051 | 114.08268 | 5391 ft | 246 kts | 160° |
| 2026-05-03 23:40 | 22.29389 | 114.08646 | 5883 ft | 245 kts | 181° |
| 2026-05-03 23:41 | 22.27675 | 114.08656 | 6404 ft | 248 kts | 183° |
| 2026-05-03 23:41 | 22.25944 | 114.08667 | 6879 ft | 250 kts | 183° |
| 2026-05-03 23:41 | 22.24192 | 114.08681 | 7364 ft | 257 kts | 184° |
| 2026-05-03 23:41 | 22.22345 | 114.08674 | 7534 ft | 278 kts | 184° |
| 2026-05-03 23:42 | 22.20375 | 114.08652 | 7980 ft | 286 kts | 184° |
| 2026-05-03 23:42 | 22.18345 | 114.08766 | 8551 ft | 294 kts | 172° |
| 2026-05-03 23:42 | 22.16432 | 114.09597 | 9123 ft | 303 kts | 149° |
| 2026-05-03 23:42 | 22.14893 | 114.11181 | 9672 ft | 311 kts | 126° |
| 2026-05-03 23:43 | 22.13845 | 114.13244 | 10185 ft | 317 kts | 118° |
| 2026-05-03 23:43 | 22.12834 | 114.15395 | 10322 ft | 335 kts | 118° |
| 2026-05-03 23:43 | 22.11746 | 114.17697 | 10443 ft | 353 kts | 118° |
| 2026-05-03 23:43 | 22.10603 | 114.20112 | 10562 ft | 369 kts | 119° |
| 2026-05-03 23:44 | 22.09411 | 114.22627 | 10763 ft | 381 kts | 118° |
| 2026-05-03 23:44 | 22.08046 | 114.25090 | 11168 ft | 384 kts | 129° |
| 2026-05-03 23:44 | 22.06275 | 114.27236 | 11617 ft | 384 kts | 141° |
| 2026-05-03 23:44 | 22.04171 | 114.29005 | 12081 ft | 384 kts | 147° |
| 2026-05-03 23:45 | 22.02000 | 114.30697 | 12569 ft | 387 kts | 148° |
| 2026-05-03 23:45 | 21.99673 | 114.32123 | 13015 ft | 383 kts | 162° |
| 2026-05-03 23:45 | 21.97109 | 114.32806 | 13465 ft | 378 kts | 179° |
| 2026-05-03 23:45 | 21.94506 | 114.32708 | 13902 ft | 373 kts | 194° |
| 2026-05-03 23:46 | 21.92082 | 114.31894 | 14302 ft | 368 kts | 209° |
| 2026-05-03 23:46 | 21.89933 | 114.30445 | 14722 ft | 364 kts | 221° |
| 2026-05-03 23:46 | 21.87949 | 114.28753 | 15165 ft | 365 kts | 221° |
| 2026-05-03 23:46 | 21.85951 | 114.27048 | 15596 ft | 366 kts | 221° |
| 2026-05-03 23:47 | 21.83947 | 114.25338 | 15982 ft | 369 kts | 220° |
| 2026-05-03 23:47 | 21.81930 | 114.23616 | 16374 ft | 372 kts | 220° |
| 2026-05-03 23:47 | 21.79898 | 114.21881 | 16797 ft | 374 kts | 220° |
| 2026-05-03 23:47 | 21.77857 | 114.20140 | 17221 ft | 375 kts | 220° |
| 2026-05-03 23:48 | 21.75804 | 114.18394 | 17637 ft | 377 kts | 220° |
| 2026-05-03 23:48 | 21.73743 | 114.16641 | 18038 ft | 378 kts | 220° |
| 2026-05-03 23:48 | 21.71672 | 114.14881 | 18415 ft | 380 kts | 220° |
| 2026-05-03 23:48 | 21.69592 | 114.13117 | 18752 ft | 382 kts | 220° |
| 2026-05-03 23:49 | 21.67498 | 114.11342 | 19103 ft | 383 kts | 220° |
| 2026-05-03 23:49 | 21.65311 | 114.09675 | 19429 ft | 387 kts | 212° |
| 2026-05-03 23:49 | 21.62847 | 114.08464 | 19756 ft | 393 kts | 202° |
| 2026-05-03 23:49 | 21.60224 | 114.07719 | 20067 ft | 397 kts | 197° |
| 2026-05-03 23:50 | 21.57534 | 114.07030 | 20369 ft | 398 kts | 197° |
| 2026-05-03 23:50 | 21.54837 | 114.06333 | 20685 ft | 400 kts | 197° |
| 2026-05-03 23:50 | 21.52124 | 114.05630 | 20998 ft | 402 kts | 198° |
| 2026-05-03 23:50 | 21.49401 | 114.04923 | 21308 ft | 403 kts | 198° |
| 2026-05-03 23:51 | 21.46666 | 114.04211 | 21615 ft | 405 kts | 198° |
| 2026-05-03 23:51 | 21.43909 | 114.03555 | 21910 ft | 409 kts | 193° |
| 2026-05-03 23:51 | 21.41053 | 114.03291 | 22205 ft | 414 kts | 188° |
| 2026-05-03 23:51 | 21.38169 | 114.03105 | 22498 ft | 415 kts | 188° |
| 2026-05-03 23:52 | 21.35283 | 114.02917 | 22788 ft | 417 kts | 188° |
| 2026-05-03 23:52 | 21.32381 | 114.02724 | 23072 ft | 419 kts | 188° |
| 2026-05-03 23:52 | 21.29466 | 114.02527 | 23352 ft | 420 kts | 188° |
| 2026-05-03 23:52 | 21.26550 | 114.02332 | 23634 ft | 421 kts | 188° |
| 2026-05-03 23:53 | 21.23649 | 114.02136 | 23907 ft | 422 kts | 188° |
| 2026-05-03 23:53 | 21.20719 | 114.01939 | 24133 ft | 423 kts | 188° |
| 2026-05-03 23:53 | 21.17774 | 114.01740 | 24360 ft | 425 kts | 188° |
| 2026-05-03 23:53 | 21.14822 | 114.01540 | 24578 ft | 426 kts | 188° |
| 2026-05-03 23:54 | 21.11856 | 114.01339 | 24802 ft | 428 kts | 188° |
| 2026-05-03 23:54 | 21.08870 | 114.01140 | 25023 ft | 430 kts | 188° |
| 2026-05-03 23:54 | 21.05880 | 114.00944 | 25242 ft | 431 kts | 188° |
| 2026-05-03 23:54 | 21.02880 | 114.00747 | 25456 ft | 433 kts | 188° |
| 2026-05-03 23:55 | 20.99865 | 114.00548 | 25681 ft | 435 kts | 188° |
| 2026-05-03 23:55 | 20.96838 | 114.00346 | 25862 ft | 437 kts | 188° |
| 2026-05-03 23:55 | 20.93799 | 114.00088 | 26016 ft | 438 kts | 192° |
| 2026-05-03 23:55 | 20.90815 | 113.99462 | 26200 ft | 437 kts | 196° |
| 2026-05-03 23:56 | 20.87829 | 113.98764 | 26402 ft | 439 kts | 197° |
| 2026-05-03 23:56 | 20.84842 | 113.98065 | 26611 ft | 441 kts | 197° |
| 2026-05-03 23:56 | 20.81838 | 113.97360 | 26815 ft | 443 kts | 197° |
| 2026-05-03 23:56 | 20.78821 | 113.96653 | 27016 ft | 445 kts | 197° |
| 2026-05-03 23:57 | 20.75794 | 113.95945 | 27218 ft | 446 kts | 197° |
| 2026-05-03 23:57 | 20.72752 | 113.95236 | 27416 ft | 448 kts | 197° |
| 2026-05-03 23:57 | 20.69702 | 113.94527 | 27615 ft | 450 kts | 197° |
| 2026-05-03 23:57 | 20.66639 | 113.93817 | 27777 ft | 452 kts | 197° |
| 2026-05-03 23:58 | 20.63560 | 113.93099 | 27940 ft | 454 kts | 197° |
| 2026-05-03 23:58 | 20.60468 | 113.92377 | 28114 ft | 455 kts | 197° |
| 2026-05-03 23:58 | 20.57404 | 113.91664 | 28282 ft | 457 kts | 197° |
| 2026-05-03 23:58 | 20.54291 | 113.90945 | 28443 ft | 459 kts | 196° |
| 2026-05-03 23:59 | 20.51169 | 113.90224 | 28599 ft | 460 kts | 197° |
| 2026-05-03 23:59 | 20.48038 | 113.89500 | 28754 ft | 461 kts | 197° |
| 2026-05-03 23:59 | 20.44887 | 113.88771 | 28897 ft | 463 kts | 197° |
| 2026-05-03 23:59 | 20.41740 | 113.88041 | 29040 ft | 464 kts | 197° |
| 2026-05-04 00:00 | 20.38582 | 113.87308 | 29185 ft | 465 kts | 197° |
| 2026-05-04 00:00 | 20.35421 | 113.86578 | 29391 ft | 464 kts | 197° |
| 2026-05-04 00:00 | 20.32260 | 113.85847 | 29592 ft | 464 kts | 197° |
| 2026-05-04 00:00 | 20.29110 | 113.85115 | 29777 ft | 464 kts | 197° |
| 2026-05-04 00:01 | 20.25958 | 113.84386 | 29976 ft | 464 kts | 197° |
| 2026-05-04 00:01 | 20.22802 | 113.83655 | 30145 ft | 464 kts | 197° |
| 2026-05-04 00:01 | 20.19645 | 113.82925 | 30304 ft | 464 kts | 197° |
| 2026-05-04 00:01 | 20.16497 | 113.82195 | 30472 ft | 463 kts | 197° |
| 2026-05-04 00:02 | 20.13383 | 113.81474 | 30643 ft | 463 kts | 197° |
| 2026-05-04 00:02 | 20.10235 | 113.80749 | 30806 ft | 462 kts | 197° |
| 2026-05-04 00:02 | 20.07088 | 113.80025 | 30944 ft | 463 kts | 197° |
| 2026-05-04 00:02 | 20.03943 | 113.79298 | 31087 ft | 463 kts | 197° |
| 2026-05-04 00:03 | 20.00782 | 113.78570 | 31254 ft | 463 kts | 197° |
| 2026-05-04 00:03 | 19.97639 | 113.77849 | 31430 ft | 462 kts | 197° |
| 2026-05-04 00:03 | 19.94499 | 113.77131 | 31607 ft | 462 kts | 197° |
| 2026-05-04 00:03 | 19.91362 | 113.76413 | 31788 ft | 461 kts | 197° |
| 2026-05-04 00:04 | 19.88226 | 113.75693 | 31961 ft | 460 kts | 197° |
| 2026-05-04 00:04 | 19.85096 | 113.74969 | 32142 ft | 460 kts | 197° |
| 2026-05-04 00:04 | 19.81973 | 113.74246 | 32348 ft | 458 kts | 197° |
| 2026-05-04 00:04 | 19.78897 | 113.73536 | 32532 ft | 457 kts | 197° |
| 2026-05-04 00:05 | 19.75744 | 113.72807 | 32686 ft | 458 kts | 197° |
| 2026-05-04 00:05 | 19.72673 | 113.72102 | 32842 ft | 457 kts | 197° |
| 2026-05-04 00:05 | 19.69524 | 113.71381 | 33015 ft | 457 kts | 197° |
| 2026-05-04 00:05 | 19.66456 | 113.70677 | 33179 ft | 456 kts | 197° |
| 2026-05-04 00:06 | 19.63316 | 113.69958 | 33346 ft | 456 kts | 197° |
| 2026-05-04 00:06 | 19.60252 | 113.69256 | 33504 ft | 456 kts | 197° |
| 2026-05-04 00:06 | 19.57153 | 113.68547 | 33693 ft | 455 kts | 197° |
| 2026-05-04 00:06 | 19.54062 | 113.67837 | 33856 ft | 454 kts | 197° |
| 2026-05-04 00:07 | 19.50975 | 113.67128 | 33982 ft | 454 kts | 197° |
| 2026-05-04 00:07 | 19.47899 | 113.66423 | 34001 ft | 451 kts | 197° |
| 2026-05-04 00:07 | 19.41782 | 113.65029 | 34002 ft | 449 kts | 197° |
| 2026-05-04 00:08 | 19.35681 | 113.63640 | 34003 ft | 448 kts | 197° |
| 2026-05-04 00:08 | 19.29585 | 113.62246 | 34003 ft | 448 kts | 197° |
| 2026-05-04 00:09 | 19.23530 | 113.60867 | 34002 ft | 448 kts | 197° |
| 2026-05-04 00:09 | 19.17430 | 113.59471 | 33990 ft | 449 kts | 196° |
| 2026-05-04 00:10 | 19.11315 | 113.58079 | 33992 ft | 450 kts | 196° |
| 2026-05-04 00:10 | 19.05195 | 113.56688 | 33998 ft | 450 kts | 196° |
| 2026-05-04 00:11 | 18.99059 | 113.55306 | 33999 ft | 451 kts | 195° |
| 2026-05-04 00:11 | 18.92838 | 113.54291 | 34006 ft | 454 kts | 191° |
| 2026-05-04 00:12 | 18.86559 | 113.53518 | 33996 ft | 455 kts | 191° |
| 2026-05-04 00:12 | 18.80268 | 113.52706 | 33989 ft | 456 kts | 191° |
| 2026-05-04 00:13 | 18.74017 | 113.51813 | 33994 ft | 457 kts | 192° |
| 2026-05-04 00:13 | 18.67719 | 113.50884 | 33997 ft | 457 kts | 192° |
| 2026-05-04 00:14 | 18.61412 | 113.49965 | 34006 ft | 458 kts | 192° |
| 2026-05-04 00:14 | 18.55323 | 113.48309 | 34004 ft | 448 kts | 207° |
| 2026-05-04 00:15 | 18.50096 | 113.44879 | 34020 ft | 442 kts | 219° |
| 2026-05-04 00:15 | 18.45143 | 113.41049 | 34021 ft | 441 kts | 219° |
| 2026-05-04 00:16 | 18.40191 | 113.37220 | 34008 ft | 441 kts | 219° |
| 2026-05-04 00:16 | 18.35236 | 113.33404 | 34008 ft | 441 kts | 219° |
| 2026-05-04 00:17 | 18.30274 | 113.29591 | 34009 ft | 441 kts | 219° |
| 2026-05-04 00:17 | 18.25321 | 113.25781 | 34008 ft | 441 kts | 218° |
| 2026-05-04 00:18 | 18.20377 | 113.21970 | 34013 ft | 440 kts | 218° |
| 2026-05-04 00:18 | 18.15429 | 113.18178 | 34010 ft | 440 kts | 218° |
| 2026-05-04 00:19 | 18.10516 | 113.14415 | 34009 ft | 440 kts | 218° |
| 2026-05-04 00:19 | 18.05581 | 113.10625 | 34010 ft | 439 kts | 218° |
| 2026-05-04 00:20 | 18.00635 | 113.06830 | 33997 ft | 440 kts | 218° |
| 2026-05-04 00:20 | 17.95687 | 113.03035 | 33988 ft | 441 kts | 218° |
| 2026-05-04 00:21 | 17.90723 | 112.99230 | 33978 ft | 442 kts | 218° |
| 2026-05-04 00:21 | 17.85749 | 112.95429 | 33985 ft | 442 kts | 218° |
| 2026-05-04 00:22 | 17.80802 | 112.91592 | 33987 ft | 442 kts | 219° |
| 2026-05-04 00:22 | 17.75890 | 112.87707 | 33989 ft | 442 kts | 219° |
| 2026-05-04 00:23 | 17.71010 | 112.83836 | 33981 ft | 443 kts | 219° |
| 2026-05-04 00:23 | 17.66080 | 112.79955 | 33986 ft | 443 kts | 219° |
| 2026-05-04 00:24 | 17.61142 | 112.76092 | 33991 ft | 443 kts | 219° |
| 2026-05-04 00:24 | 17.56193 | 112.72216 | 33990 ft | 444 kts | 219° |
| 2026-05-04 00:25 | 17.51251 | 112.68342 | 33995 ft | 444 kts | 219° |
| 2026-05-04 00:25 | 17.46301 | 112.64466 | 33996 ft | 444 kts | 219° |
| 2026-05-04 00:26 | 17.42185 | 112.61242 | 33999 ft | 444 kts | 219° |
| 2026-05-04 00:26 | 17.37236 | 112.57371 | 34000 ft | 444 kts | 219° |
| 2026-05-04 00:27 | 17.32275 | 112.53503 | 34003 ft | 444 kts | 219° |
| 2026-05-04 00:27 | 17.27324 | 112.49636 | 34003 ft | 444 kts | 219° |
| 2026-05-04 00:28 | 17.22369 | 112.45770 | 33999 ft | 444 kts | 219° |
| 2026-05-04 00:28 | 17.17421 | 112.41894 | 34002 ft | 445 kts | 219° |
| 2026-05-04 00:29 | 17.12456 | 112.38017 | 33997 ft | 445 kts | 218° |
| 2026-05-04 00:29 | 17.07516 | 112.34185 | 34007 ft | 444 kts | 218° |
| 2026-05-04 00:30 | 17.02564 | 112.30337 | 34009 ft | 444 kts | 218° |
| 2026-05-04 00:30 | 16.97608 | 112.26492 | 34008 ft | 443 kts | 218° |
| 2026-05-04 00:31 | 16.92620 | 112.22708 | 34004 ft | 443 kts | 217° |
| 2026-05-04 00:31 | 16.87616 | 112.18938 | 34004 ft | 443 kts | 217° |
| 2026-05-04 00:32 | 16.82628 | 112.15164 | 33999 ft | 443 kts | 218° |
| 2026-05-04 00:32 | 16.77634 | 112.11379 | 33990 ft | 444 kts | 218° |
| 2026-05-04 00:33 | 16.70131 | 112.05688 | 33982 ft | 445 kts | 218° |
| 2026-05-04 00:34 | 16.65096 | 112.01896 | 33984 ft | 446 kts | 218° |
| 2026-05-04 00:34 | 16.60099 | 111.98123 | 33987 ft | 446 kts | 218° |
| 2026-05-04 00:35 | 16.55066 | 111.94319 | 33993 ft | 447 kts | 218° |
| 2026-05-04 00:35 | 16.50030 | 111.90516 | 33985 ft | 447 kts | 218° |
| 2026-05-04 00:36 | 16.44990 | 111.86710 | 33982 ft | 448 kts | 218° |
| 2026-05-04 00:36 | 16.39934 | 111.82906 | 33985 ft | 448 kts | 217° |
| 2026-05-04 00:37 | 16.34875 | 111.79104 | 33997 ft | 449 kts | 218° |
| 2026-05-04 00:37 | 16.29810 | 111.75295 | 33998 ft | 449 kts | 218° |
| 2026-05-04 00:38 | 16.24746 | 111.71483 | 33996 ft | 449 kts | 218° |
| 2026-05-04 00:38 | 16.19685 | 111.67667 | 33990 ft | 449 kts | 217° |
| 2026-05-04 00:39 | 16.14617 | 111.63856 | 33992 ft | 449 kts | 217° |
| 2026-05-04 00:39 | 16.09581 | 111.60078 | 33995 ft | 449 kts | 217° |
| 2026-05-04 00:40 | 16.04512 | 111.56271 | 33996 ft | 449 kts | 217° |
| 2026-05-04 00:40 | 15.99436 | 111.52478 | 33997 ft | 449 kts | 217° |
| 2026-05-04 00:41 | 15.94370 | 111.48683 | 34000 ft | 449 kts | 217° |
| 2026-05-04 00:41 | 15.89290 | 111.44882 | 33991 ft | 449 kts | 217° |
| 2026-05-04 00:42 | 15.84215 | 111.41092 | 33993 ft | 449 kts | 217° |
| 2026-05-04 00:42 | 15.79144 | 111.37300 | 33995 ft | 449 kts | 217° |
| 2026-05-04 00:43 | 15.74104 | 111.33532 | 33993 ft | 449 kts | 217° |
| 2026-05-04 00:43 | 15.69032 | 111.29742 | 33995 ft | 449 kts | 217° |
| 2026-05-04 00:44 | 15.63953 | 111.25958 | 33994 ft | 449 kts | 217° |
| 2026-05-04 00:44 | 15.58882 | 111.22167 | 33984 ft | 449 kts | 217° |
| 2026-05-04 00:45 | 15.53796 | 111.18377 | 33986 ft | 450 kts | 217° |
| 2026-05-04 00:45 | 15.48717 | 111.14590 | 33987 ft | 450 kts | 217° |
| 2026-05-04 00:46 | 15.43623 | 111.10790 | 33983 ft | 451 kts | 217° |
| 2026-05-04 00:46 | 15.38527 | 111.07004 | 33982 ft | 451 kts | 217° |
| 2026-05-04 00:47 | 15.33429 | 111.03203 | 33983 ft | 451 kts | 217° |
| 2026-05-04 00:47 | 15.28368 | 110.99351 | 33982 ft | 452 kts | 218° |
| 2026-05-04 00:48 | 15.23340 | 110.95514 | 33987 ft | 451 kts | 218° |
| 2026-05-04 00:48 | 15.18282 | 110.91663 | 33988 ft | 451 kts | 218° |
| 2026-05-04 00:49 | 15.13216 | 110.87812 | 33990 ft | 451 kts | 218° |
| 2026-05-04 00:49 | 15.08152 | 110.83969 | 33991 ft | 451 kts | 218° |
| 2026-05-04 00:50 | 15.03076 | 110.80129 | 33992 ft | 451 kts | 217° |
| 2026-05-04 00:50 | 14.98001 | 110.76289 | 33986 ft | 452 kts | 218° |
| 2026-05-04 00:51 | 14.92930 | 110.72453 | 33993 ft | 452 kts | 218° |
| 2026-05-04 00:51 | 14.87857 | 110.68616 | 33993 ft | 452 kts | 218° |
| 2026-05-04 00:52 | 14.82816 | 110.64805 | 33994 ft | 452 kts | 218° |
| 2026-05-04 00:52 | 14.77741 | 110.60972 | 33992 ft | 452 kts | 218° |
| 2026-05-04 00:53 | 14.72668 | 110.57137 | 33991 ft | 452 kts | 218° |
| 2026-05-04 00:53 | 14.67587 | 110.53296 | 33989 ft | 452 kts | 218° |
| 2026-05-04 00:54 | 14.62510 | 110.49456 | 33992 ft | 452 kts | 218° |
| 2026-05-04 00:54 | 14.57429 | 110.45624 | 33997 ft | 452 kts | 218° |
| 2026-05-04 00:55 | 14.52337 | 110.41798 | 33996 ft | 452 kts | 218° |
| 2026-05-04 00:55 | 14.47289 | 110.37999 | 33994 ft | 452 kts | 218° |
| 2026-05-04 00:56 | 14.42199 | 110.34168 | 33994 ft | 452 kts | 218° |
| 2026-05-04 00:56 | 14.37110 | 110.30344 | 33999 ft | 452 kts | 218° |
| 2026-05-04 00:57 | 14.32022 | 110.26518 | 33997 ft | 452 kts | 218° |
| 2026-05-04 00:57 | 14.26935 | 110.22693 | 33992 ft | 452 kts | 218° |
| 2026-05-04 00:58 | 14.21851 | 110.18872 | 33998 ft | 452 kts | 218° |
| 2026-05-04 00:58 | 14.16759 | 110.15063 | 33999 ft | 452 kts | 218° |
| 2026-05-04 00:59 | 14.11673 | 110.11252 | 33999 ft | 452 kts | 218° |
| 2026-05-04 00:59 | 14.06625 | 110.07461 | 33999 ft | 452 kts | 218° |
| 2026-05-04 01:00 | 14.01549 | 110.03654 | 33993 ft | 451 kts | 218° |
| 2026-05-04 01:00 | 13.96471 | 109.99862 | 33995 ft | 451 kts | 218° |
| 2026-05-04 01:01 | 13.91224 | 109.96309 | 33995 ft | 452 kts | 214° |
| 2026-05-04 01:01 | 13.85842 | 109.92960 | 33997 ft | 452 kts | 213° |
| 2026-05-04 01:02 | 13.80464 | 109.89598 | 33997 ft | 452 kts | 214° |
| 2026-05-04 01:02 | 13.75130 | 109.86177 | 33994 ft | 452 kts | 214° |
| 2026-05-04 01:03 | 13.69804 | 109.82725 | 33977 ft | 453 kts | 214° |
| 2026-05-04 01:03 | 13.64496 | 109.79306 | 33974 ft | 454 kts | 214° |
| 2026-05-04 01:04 | 13.59143 | 109.75873 | 33994 ft | 453 kts | 214° |
| 2026-05-04 01:04 | 13.53797 | 109.72448 | 33996 ft | 452 kts | 214° |
| 2026-05-04 01:05 | 13.48463 | 109.69029 | 33993 ft | 452 kts | 214° |
| 2026-05-04 01:05 | 13.43130 | 109.65613 | 33996 ft | 451 kts | 214° |
| 2026-05-04 01:06 | 13.37802 | 109.62188 | 33986 ft | 452 kts | 214° |
| 2026-05-04 01:06 | 13.32470 | 109.58771 | 33985 ft | 452 kts | 214° |
| 2026-05-04 01:07 | 13.27153 | 109.55377 | 33990 ft | 453 kts | 214° |
| 2026-05-04 01:07 | 13.21807 | 109.51960 | 33994 ft | 453 kts | 214° |
| 2026-05-04 01:08 | 13.16455 | 109.48544 | 33994 ft | 453 kts | 214° |
| 2026-05-04 01:08 | 13.11105 | 109.45125 | 34000 ft | 453 kts | 213° |
| 2026-05-04 01:09 | 13.05750 | 109.41701 | 33991 ft | 454 kts | 212° |
| 2026-05-04 01:09 | 13.00381 | 109.38278 | 33990 ft | 455 kts | 212° |
| 2026-05-04 01:10 | 12.94998 | 109.34847 | 33995 ft | 456 kts | 212° |
| 2026-05-04 01:10 | 12.89645 | 109.31432 | 34000 ft | 456 kts | 212° |
| 2026-05-04 01:11 | 12.84255 | 109.27998 | 34002 ft | 456 kts | 212° |
| 2026-05-04 01:11 | 12.78857 | 109.24560 | 34012 ft | 456 kts | 212° |
| 2026-05-04 01:12 | 12.73464 | 109.21128 | 34014 ft | 456 kts | 213° |
| 2026-05-04 01:12 | 12.68073 | 109.17696 | 34013 ft | 456 kts | 213° |
| 2026-05-04 01:13 | 12.62685 | 109.14263 | 34013 ft | 456 kts | 213° |
| 2026-05-04 01:13 | 12.57328 | 109.10857 | 34025 ft | 457 kts | 213° |
| 2026-05-04 01:14 | 12.51917 | 109.07431 | 34014 ft | 458 kts | 213° |
| 2026-05-04 01:14 | 12.46494 | 109.03999 | 34012 ft | 459 kts | 213° |
| 2026-05-04 01:15 | 12.41067 | 109.00557 | 34026 ft | 459 kts | 211° |
| 2026-05-04 01:15 | 12.35652 | 108.97123 | 34053 ft | 457 kts | 211° |
| 2026-05-04 01:16 | 12.30244 | 108.93690 | 34053 ft | 456 kts | 211° |
| 2026-05-04 01:16 | 12.25765 | 108.90855 | 34051 ft | 456 kts | 211° |
| 2026-05-04 01:17 | 12.20369 | 108.87445 | 34064 ft | 456 kts | 211° |
| 2026-05-04 01:17 | 12.14096 | 108.83477 | 34071 ft | 455 kts | 211° |
| 2026-05-04 01:18 | 12.09618 | 108.80646 | 34066 ft | 455 kts | 211° |
| 2026-05-04 01:18 | 12.04233 | 108.77244 | 34062 ft | 454 kts | 211° |
| 2026-05-04 01:19 | 11.98859 | 108.73850 | 34078 ft | 453 kts | 211° |
| 2026-05-04 01:19 | 11.93505 | 108.70475 | 34072 ft | 451 kts | 211° |
| 2026-05-04 01:20 | 11.88176 | 108.67075 | 34064 ft | 451 kts | 215° |
| 2026-05-04 01:20 | 11.83808 | 108.62526 | 34058 ft | 452 kts | 236° |
| 2026-05-04 01:21 | 11.81315 | 108.56656 | 34063 ft | 454 kts | 253° |
| 2026-05-04 01:21 | 11.79603 | 108.50445 | 34057 ft | 455 kts | 252° |
| 2026-05-04 01:22 | 11.77861 | 108.44236 | 34050 ft | 455 kts | 253° |
| 2026-05-04 01:22 | 11.76103 | 108.38055 | 34033 ft | 457 kts | 250° |
| 2026-05-04 01:23 | 11.73202 | 108.32312 | 34027 ft | 457 kts | 233° |
| 2026-05-04 01:23 | 11.69501 | 108.27019 | 34014 ft | 459 kts | 234° |
| 2026-05-04 01:24 | 11.65799 | 108.21690 | 33105 ft | 464 kts | 234° |
| 2026-05-04 01:24 | 11.63916 | 108.18972 | 31905 ft | 473 kts | 234° |
| 2026-05-04 01:24 | 11.62001 | 108.16209 | 30825 ft | 480 kts | 233° |
| 2026-05-04 01:24 | 11.60065 | 108.13423 | 29955 ft | 481 kts | 233° |
| 2026-05-04 01:25 | 11.58133 | 108.10649 | 29048 ft | 479 kts | 233° |
| 2026-05-04 01:25 | 11.56209 | 108.07887 | 28284 ft | 476 kts | 233° |
| 2026-05-04 01:25 | 11.54300 | 108.05148 | 27587 ft | 471 kts | 233° |
| 2026-05-04 01:25 | 11.52405 | 108.02434 | 26922 ft | 467 kts | 233° |
| 2026-05-04 01:26 | 11.50553 | 107.99779 | 26287 ft | 463 kts | 233° |
| 2026-05-04 01:26 | 11.48701 | 107.97118 | 25649 ft | 459 kts | 234° |
| 2026-05-04 01:26 | 11.46862 | 107.94477 | 25014 ft | 455 kts | 233° |
| 2026-05-04 01:26 | 11.45032 | 107.91851 | 24373 ft | 452 kts | 233° |
| 2026-05-04 01:27 | 11.43219 | 107.89253 | 23759 ft | 448 kts | 233° |
| 2026-05-04 01:27 | 11.41416 | 107.86671 | 23061 ft | 445 kts | 233° |
| 2026-05-04 01:27 | 11.39627 | 107.84111 | 22370 ft | 441 kts | 233° |
| 2026-05-04 01:27 | 11.37854 | 107.81571 | 21705 ft | 436 kts | 233° |
| 2026-05-04 01:28 | 11.36107 | 107.79068 | 21070 ft | 432 kts | 233° |
| 2026-05-04 01:28 | 11.34371 | 107.76583 | 20429 ft | 427 kts | 233° |
| 2026-05-04 01:28 | 11.32657 | 107.74130 | 19819 ft | 423 kts | 233° |
| 2026-05-04 01:28 | 11.30957 | 107.71697 | 19215 ft | 419 kts | 233° |
| 2026-05-04 01:29 | 11.29275 | 107.69288 | 18627 ft | 416 kts | 233° |
| 2026-05-04 01:29 | 11.27608 | 107.66898 | 18038 ft | 412 kts | 233° |
| 2026-05-04 01:29 | 11.25957 | 107.64535 | 17399 ft | 408 kts | 233° |
| 2026-05-04 01:29 | 11.24340 | 107.62220 | 16783 ft | 404 kts | 233° |
| 2026-05-04 01:30 | 11.22590 | 107.60016 | 16176 ft | 398 kts | 224° |
| 2026-05-04 01:30 | 11.20618 | 107.58049 | 15566 ft | 394 kts | 223° |
| 2026-05-04 01:30 | 11.18663 | 107.56109 | 14944 ft | 388 kts | 223° |
| 2026-05-04 01:30 | 11.16744 | 107.54204 | 14047 ft | 383 kts | 223° |
| 2026-05-04 01:31 | 11.14849 | 107.52320 | 13169 ft | 377 kts | 223° |
| 2026-05-04 01:31 | 11.13019 | 107.50498 | 12703 ft | 360 kts | 223° |
| 2026-05-04 01:31 | 11.11263 | 107.48747 | 12217 ft | 345 kts | 224° |
| 2026-05-04 01:31 | 11.09580 | 107.47068 | 11772 ft | 333 kts | 223° |
| 2026-05-04 01:32 | 11.07952 | 107.45443 | 11407 ft | 321 kts | 223° |
| 2026-05-04 01:32 | 11.06379 | 107.43872 | 10992 ft | 312 kts | 223° |
| 2026-05-04 01:32 | 11.04845 | 107.42341 | 10934 ft | 309 kts | 223° |
| 2026-05-04 01:32 | 11.03302 | 107.40804 | 10960 ft | 311 kts | 224° |
| 2026-05-04 01:33 | 11.01946 | 107.39093 | 10954 ft | 312 kts | 238° |
| 2026-05-04 01:33 | 11.01035 | 107.37082 | 10743 ft | 313 kts | 253° |
| 2026-05-04 01:33 | 11.00558 | 107.34932 | 10446 ft | 311 kts | 259° |
| 2026-05-04 01:33 | 11.00117 | 107.32782 | 10155 ft | 310 kts | 258° |
| 2026-05-04 01:34 | 10.99671 | 107.30636 | 9873 ft | 310 kts | 258° |
| 2026-05-04 01:34 | 10.99220 | 107.28493 | 9568 ft | 309 kts | 258° |
| 2026-05-04 01:34 | 10.98868 | 107.26345 | 9324 ft | 307 kts | 264° |
| 2026-05-04 01:34 | 10.98538 | 107.24199 | 9200 ft | 308 kts | 259° |
| 2026-05-04 01:35 | 10.98083 | 107.22070 | 9079 ft | 307 kts | 257° |
| 2026-05-04 01:35 | 10.97584 | 107.19952 | 8959 ft | 307 kts | 257° |
| 2026-05-04 01:35 | 10.97081 | 107.17845 | 8828 ft | 306 kts | 257° |
| 2026-05-04 01:35 | 10.96599 | 107.15768 | 8706 ft | 305 kts | 257° |
| 2026-05-04 01:36 | 10.96125 | 107.13661 | 8589 ft | 305 kts | 258° |
| 2026-05-04 01:36 | 10.95666 | 107.11565 | 8313 ft | 302 kts | 258° |
| 2026-05-04 01:36 | 10.95218 | 107.09483 | 7921 ft | 301 kts | 258° |
| 2026-05-04 01:36 | 10.94773 | 107.07406 | 7510 ft | 300 kts | 258° |
| 2026-05-04 01:37 | 10.94331 | 107.05330 | 7104 ft | 300 kts | 258° |
| 2026-05-04 01:37 | 10.93889 | 107.03254 | 6708 ft | 300 kts | 258° |
| 2026-05-04 01:37 | 10.93451 | 107.01192 | 6338 ft | 298 kts | 258° |
| 2026-05-04 01:37 | 10.93014 | 106.99141 | 5947 ft | 297 kts | 258° |
| 2026-05-04 01:38 | 10.92581 | 106.97109 | 5654 ft | 291 kts | 258° |
| 2026-05-04 01:38 | 10.92153 | 106.95100 | 5267 ft | 290 kts | 258° |
| 2026-05-04 01:38 | 10.91731 | 106.93131 | 5125 ft | 279 kts | 258° |
| 2026-05-04 01:38 | 10.91324 | 106.91239 | 4996 ft | 269 kts | 258° |
| 2026-05-04 01:39 | 10.90913 | 106.89403 | 4741 ft | 266 kts | 258° |
| 2026-05-04 01:39 | 10.90454 | 106.87522 | 4209 ft | 277 kts | 253° |
| 2026-05-04 01:39 | 10.89811 | 106.85686 | 3842 ft | 272 kts | 249° |
| 2026-05-04 01:39 | 10.89129 | 106.83923 | 3496 ft | 263 kts | 249° |
| 2026-05-04 01:40 | 10.88478 | 106.82216 | 3172 ft | 255 kts | 249° |
| 2026-05-04 01:40 | 10.87862 | 106.80579 | 2867 ft | 242 kts | 249° |
| 2026-05-04 01:40 | 10.87271 | 106.79010 | 2553 ft | 232 kts | 249° |
| 2026-05-04 01:40 | 10.86710 | 106.77519 | 2272 ft | 218 kts | 249° |
| 2026-05-04 01:41 | 10.86188 | 106.76135 | 1997 ft | 202 kts | 249° |
| 2026-05-04 01:41 | 10.85713 | 106.74878 | 1751 ft | 183 kts | 249° |
| 2026-05-04 01:41 | 10.85280 | 106.73728 | 1519 ft | 167 kts | 250° |
| 2026-05-04 01:41 | 10.84874 | 106.72651 | 1316 ft | 160 kts | 248° |
| 2026-05-04 01:42 | 10.84481 | 106.71608 | 1112 ft | 157 kts | 249° |
| 2026-05-04 01:42 | 10.84091 | 106.70576 | 919 ft | 155 kts | 249° |
| 2026-05-04 01:42 | 10.83705 | 106.69551 | 718 ft | 155 kts | 248° |
| 2026-05-04 01:42 | 10.83317 | 106.68520 | 497 ft | 156 kts | 248° |
| 2026-05-04 01:43 | 10.82933 | 106.67501 | 312 ft | 156 kts | 247° |
| 2026-05-04 01:43 | 10.82542 | 106.66468 | 112 ft | 156 kts | 247° |
| 2026-05-04 01:43 | 10.82176 | 106.65499 | 39 ft | 128 kts | 249° |
| 2026-05-04 01:43 | 10.81931 | 106.64850 | 37 ft | 55 kts | 249° |
| 2026-05-04 01:44 | 10.81794 | 106.64637 | 38 ft | 30 kts | 221° |
| 2026-05-04 01:44 | 10.81652 | 106.64517 | 39 ft | 23 kts | 222° |
| 2026-05-04 01:44 | 10.81571 | 106.64369 | 36 ft | 22 kts | 249° |
| 2026-05-04 01:44 | 10.81510 | 106.64307 | 36 ft | 12 kts | 176° |
| 2026-05-04 01:45 | 10.81421 | 106.64338 | 37 ft | 15 kts | 160° |
| 2026-05-04 01:45 | 10.81310 | 106.64381 | 37 ft | 18 kts | 159° |
| 2026-05-04 01:45 | 10.81213 | 106.64560 | 40 ft | 15 kts | 99° |
| 2026-05-04 01:46 | 10.81216 | 106.64667 | 37 ft | 17 kts | 71° |
| 2026-05-04 01:46 | 10.81259 | 106.64784 | 38 ft | 18 kts | 69° |
| 2026-05-04 01:46 | 10.81307 | 106.64908 | 36 ft | 19 kts | 69° |
| 2026-05-04 01:46 | 10.81345 | 106.65019 | 38 ft | 12 kts | 87° |
| 2026-05-04 01:47 | 10.81282 | 106.65069 | 37 ft | 13 kts | 159° |
| 2026-05-04 01:47 | 10.81253 | 106.65117 | 37 ft | 9 kts | 77° |
| 2026-05-04 01:47 | 10.81277 | 106.65181 | 37 ft | 10 kts | 69° |
| 2026-05-04 01:47 | 10.81270 | 106.65217 | 35 ft | 5 kts | 141° |
| 2026-05-04 01:48 | 10.81236 | 106.65233 | 37 ft | 2 kts | 159° |
| 2026-05-04 01:48 | 10.81231 | 106.65235 | 37 ft | 0 kts | 159° |